Time;durP1;ratioP1;P1;durP2;ratioP2;P2;SDS_P1;SDS_P2;PMS_P1;PMS_P2;Temp;Humidity;BMP_temperature;BMP_pressure;BME280_temperature;BME280_humidity;BME280_pressure;Samples;Min_cycle;Max_cycle;Signal;HPM_P1;HPM_P2
2021/01/19 00:01:28;;;;;;;13.53;5.17;;;;;;;;;;4391781;32;20138;-73
2021/01/19 00:03:56;;;;;;;10.67;6.00;;;;;;;;;;4391816;32;20158;-73
2021/01/19 00:06:25;;;;;;;12.50;5.13;;;;;;;;;;4378530;32;20189;-72
2021/01/19 00:08:50;;;;;;;14.63;4.93;;;;;;;;;;4391896;32;20528;-73
2021/01/19 00:11:16;;;;;;;13.23;4.43;;;;;;;;;;4391120;32;20135;-72
2021/01/19 00:13:41;;;;;;;9.37;3.60;;;;;;;;;;4405890;32;20165;-72
2021/01/19 00:16:15;;;;;;;12.87;4.80;;;;;;;;;;4390497;32;20243;-72
2021/01/19 00:18:43;;;;;;;12.00;3.83;;;;;;;;;;4395460;32;20483;-72
2021/01/19 00:21:11;;;;;;;14.10;4.13;;;;;;;;;;4391630;32;20220;-73
2021/01/19 00:23:37;;;;;;;14.70;4.13;;;;;;;;;;4391288;32;20162;-72
2021/01/19 00:26:03;;;;;;;10.63;3.67;;;;;;;;;;4391229;32;20158;-72
2021/01/19 00:28:37;;;;;;;10.97;4.37;;;;;;;;;;4404121;32;20176;-72
2021/01/19 00:31:02;;;;;;;6.63;3.23;;;;;;;;;;4406761;32;20489;-73
2021/01/19 00:33:28;;;;;;;11.37;4.30;;;;;;;;;;4406679;32;20138;-72
2021/01/19 00:35:53;;;;;;;8.70;3.60;;;;;;;;;;4392536;32;20185;-72
2021/01/19 00:38:18;;;;;;;12.50;3.77;;;;;;;;;;4406343;32;20176;-72
2021/01/19 00:40:44;;;;;;;13.70;3.87;;;;;;;;;;4406674;32;20613;-72
2021/01/19 00:43:09;;;;;;;12.83;4.00;;;;;;;;;;4406015;32;20161;-72
2021/01/19 00:45:34;;;;;;;13.27;3.93;;;;;;;;;;4405744;32;20150;-72
2021/01/19 00:48:00;;;;;;;8.53;3.57;;;;;;;;;;4399107;32;20168;-72
2021/01/19 00:50:25;;;;;;;11.67;3.97;;;;;;;;;;4405859;32;20532;-71
2021/01/19 00:52:51;;;;;;;9.70;3.50;;;;;;;;;;4398851;32;20173;-72
2021/01/19 00:55:27;;;;;;;9.23;3.33;;;;;;;;;;4403082;32;20200;-72
2021/01/19 00:57:55;;;;;;;8.00;2.97;;;;;;;;;;4398741;32;20168;-73
2021/01/19 01:00:36;;;;;;;13.63;3.80;;;;;;;;;;4402904;32;20188;-72
2021/01/19 01:03:04;;;;;;;11.37;3.40;;;;;;;;;;4399364;32;20184;-73
2021/01/19 01:05:36;;;;;;;15.27;3.43;;;;;;;;;;4405695;32;20130;-72
2021/01/19 01:08:07;;;;;;;10.03;3.03;;;;;;;;;;4406213;32;20174;-72
2021/01/19 01:10:32;;;;;;;9.70;3.23;;;;;;;;;;4406361;32;20228;-72
2021/01/19 01:12:58;;;;;;;11.23;3.03;;;;;;;;;;4405618;32;20149;-71
2021/01/19 01:15:45;;;;;;;11.13;3.50;;;;;;;;;;4406051;32;20143;-72
2021/01/19 01:18:11;;;;;;;11.47;3.20;;;;;;;;;;4393482;32;20159;-72
2021/01/19 01:20:36;;;;;;;11.50;3.27;;;;;;;;;;4391695;32;20539;-71
2021/01/19 01:23:02;;;;;;;13.20;3.70;;;;;;;;;;4405664;32;20146;-72
2021/01/19 01:25:28;;;;;;;14.97;4.00;;;;;;;;;;4405560;32;20172;-72
2021/01/19 01:30:56;;;;;;;9.43;3.40;;;;;;;;;;4405615;32;20172;-71
2021/01/19 01:33:40;;;;;;;13.93;3.90;;;;;;;;;;4405730;32;20139;-71
2021/01/19 01:36:13;;;;;;;14.37;3.23;;;;;;;;;;4405394;32;20215;-72
2021/01/19 01:38:41;;;;;;;10.90;3.03;;;;;;;;;;4405394;32;20244;-71
2021/01/19 01:41:18;;;;;;;8.80;3.10;;;;;;;;;;4405278;32;20162;-70
2021/01/19 01:43:44;;;;;;;10.50;3.33;;;;;;;;;;4404960;32;20146;-71
2021/01/19 01:46:21;;;;;;;14.47;3.60;;;;;;;;;;4400323;32;20177;-71
2021/01/19 01:48:47;;;;;;;11.80;3.70;;;;;;;;;;4398551;32;20189;-70
2021/01/19 01:51:37;;;;;;;11.87;3.47;;;;;;;;;;4405958;32;20468;-71
2021/01/19 01:54:49;;;;;;;12.00;3.70;;;;;;;;;;4405469;32;20556;-71
2021/01/19 02:01:02;;;;;;;;;;;;;;;;;;;;;
2021/01/19 02:03:37;;;;;;;;;;;;;;;;;;;;;
2021/01/19 02:06:24;;;;;;;13.80;3.23;;;;;;;;;;4391940;32;20188;-71
2021/01/19 02:08:49;;;;;;;11.80;3.30;;;;;;;;;;4405310;32;20169;-70
2021/01/19 02:11:24;;;;;;;17.00;4.37;;;;;;;;;;4405553;32;20138;-70
2021/01/19 02:14:11;;;;;;;9.67;3.73;;;;;;;;;;4376642;32;20234;-70
2021/01/19 02:16:47;;;;;;;10.17;3.77;;;;;;;;;;4390120;32;20226;-70
2021/01/19 02:19:34;;;;;;;12.57;3.97;;;;;;;;;;4404985;32;20138;-70
2021/01/19 02:22:07;;;;;;;14.40;4.50;;;;;;;;;;4405234;32;20149;-70
2021/01/19 02:24:41;;;;;;;11.20;4.13;;;;;;;;;;4391925;32;20640;-70
2021/01/19 02:27:13;;;;;;;17.13;4.77;;;;;;;;;;4402248;32;20326;-70
2021/01/19 02:29:47;;;;;;;12.93;4.07;;;;;;;;;;4404084;32;20139;-70
2021/01/19 02:32:12;;;;;;;16.57;5.20;;;;;;;;;;4404253;32;20164;-70
2021/01/19 02:34:47;;;;;;;12.53;4.53;;;;;;;;;;4388786;32;20188;-70
2021/01/19 02:37:14;;;;;;;12.97;4.17;;;;;;;;;;4390316;32;20157;-70
2021/01/19 02:39:58;;;;;;;14.60;4.93;;;;;;;;;;4390362;32;20155;-70
2021/01/19 02:42:26;;;;;;;15.90;5.20;;;;;;;;;;4392336;32;20240;-70
2021/01/19 02:44:53;;;;;;;16.20;5.13;;;;;;;;;;4392965;32;20138;-71
2021/01/19 02:47:19;;;;;;;16.60;5.40;;;;;;;;;;4392366;32;20162;-71
2021/01/19 02:49:44;;;;;;;16.87;5.57;;;;;;;;;;4392897;32;20170;-71
2021/01/19 02:52:11;;;;;;;12.97;5.30;;;;;;;;;;4389207;32;20494;-71
2021/01/19 02:54:37;;;;;;;17.30;5.90;;;;;;;;;;4392479;32;20219;-70
2021/01/19 02:57:22;;;;;;;17.83;6.43;;;;;;;;;;4393139;32;20198;-70
2021/01/19 03:00:07;;;;;;;17.87;6.80;;;;;;;;;;4392971;32;20154;-71
2021/01/19 03:02:33;;;;;;;20.57;7.33;;;;;;;;;;4393063;32;20531;-70
2021/01/19 03:05:00;;;;;;;16.50;8.10;;;;;;;;;;4392212;32;20165;-70
2021/01/19 03:07:27;;;;;;;18.27;7.50;;;;;;;;;;4406943;32;20150;-71
2021/01/19 03:09:53;;;;;;;17.93;8.80;;;;;;;;;;4407912;32;20172;-71
2021/01/19 03:12:19;;;;;;;18.57;8.87;;;;;;;;;;4403503;32;20490;-71
2021/01/19 03:14:44;;;;;;;22.07;8.63;;;;;;;;;;4407616;32;20440;-71
2021/01/19 03:17:10;;;;;;;19.13;8.67;;;;;;;;;;4406486;32;20207;-72
2021/01/19 03:19:43;;;;;;;16.93;8.40;;;;;;;;;;4407039;32;20149;-70
2021/01/19 03:22:12;;;;;;;14.97;8.37;;;;;;;;;;4407559;32;20177;-70
2021/01/19 03:24:37;;;;;;;17.63;8.70;;;;;;;;;;4407540;32;20238;-70
2021/01/19 03:27:02;;;;;;;19.20;9.27;;;;;;;;;;4406938;32;20139;-70
2021/01/19 03:29:28;;;;;;;19.03;8.77;;;;;;;;;;4405945;32;20190;-70
2021/01/19 03:31:53;;;;;;;18.33;8.87;;;;;;;;;;4407313;32;20138;-70
2021/01/19 03:34:18;;;;;;;17.10;7.87;;;;;;;;;;4407284;32;20138;-72
2021/01/19 03:36:44;;;;;;;20.03;10.07;;;;;;;;;;4407178;32;20590;-70
2021/01/19 03:39:09;;;;;;;19.03;10.70;;;;;;;;;;4398703;32;20169;-70
2021/01/19 03:41:34;;;;;;;20.23;11.23;;;;;;;;;;4405562;32;20134;-71
2021/01/19 03:44:00;;;;;;;17.97;11.30;;;;;;;;;;4393229;32;20448;-70
2021/01/19 03:46:25;;;;;;;17.27;11.10;;;;;;;;;;4398744;32;20193;-71
2021/01/19 03:48:53;;;;;;;21.33;11.63;;;;;;;;;;4391795;32;20146;-71
2021/01/19 03:51:19;;;;;;;20.37;10.13;;;;;;;;;;4391217;32;20252;-70
2021/01/19 03:53:45;;;;;;;18.67;10.37;;;;;;;;;;4400028;32;20154;-71
2021/01/19 03:56:10;;;;;;;21.93;11.83;;;;;;;;;;4407216;32;20138;-70
2021/01/19 03:58:35;;;;;;;19.63;10.73;;;;;;;;;;4396125;32;20181;-70
2021/01/19 04:01:01;;;;;;;18.70;10.90;;;;;;;;;;4407496;32;20146;-71
2021/01/19 04:03:26;;;;;;;18.80;12.23;;;;;;;;;;4403861;32;20177;-69
2021/01/19 04:06:00;;;;;;;23.17;14.57;;;;;;;;;;4394451;32;20169;-70
2021/01/19 04:08:26;;;;;;;16.93;10.43;;;;;;;;;;4407200;32;20134;-70
2021/01/19 04:10:51;;;;;;;20.97;11.23;;;;;;;;;;4406527;32;20161;-70
2021/01/19 04:13:17;;;;;;;24.17;12.70;;;;;;;;;;4406771;32;20173;-70
2021/01/19 04:15:42;;;;;;;23.17;13.43;;;;;;;;;;4403175;32;20200;-70
2021/01/19 04:18:07;;;;;;;20.73;12.10;;;;;;;;;;4396386;32;20141;-71
2021/01/19 04:20:32;;;;;;;20.03;12.43;;;;;;;;;;4393622;32;20193;-70
2021/01/19 04:22:58;;;;;;;27.67;13.17;;;;;;;;;;4392826;32;20174;-72
2021/01/19 04:25:23;;;;;;;21.00;12.90;;;;;;;;;;4391561;32;20282;-69
2021/01/19 04:27:48;;;;;;;20.63;12.27;;;;;;;;;;4391380;32;20173;-70
2021/01/19 04:30:14;;;;;;;18.13;12.40;;;;;;;;;;4391248;32;20141;-70
2021/01/19 04:32:39;;;;;;;20.93;12.20;;;;;;;;;;4405889;32;20256;-69
2021/01/19 04:35:05;;;;;;;20.60;11.30;;;;;;;;;;4406273;32;20160;-69
2021/01/19 04:37:30;;;;;;;19.53;11.87;;;;;;;;;;4406656;32;20154;-70
2021/01/19 04:40:04;;;;;;;18.60;11.57;;;;;;;;;;4406219;32;20523;-70
2021/01/19 04:42:32;;;;;;;20.87;11.73;;;;;;;;;;4406300;32;20154;-67
2021/01/19 04:44:57;;;;;;;20.87;12.57;;;;;;;;;;4406015;32;20245;-70
2021/01/19 04:47:23;;;;;;;19.87;10.97;;;;;;;;;;4404657;32;20162;-71
2021/01/19 04:49:49;;;;;;;16.07;9.13;;;;;;;;;;4406180;32;20201;-70
2021/01/19 04:52:17;;;;;;;20.77;10.80;;;;;;;;;;4405953;32;20177;-69
2021/01/19 04:54:57;;;;;;;22.77;12.27;;;;;;;;;;4406089;32;20134;-70
2021/01/19 04:57:27;;;;;;;17.17;9.53;;;;;;;;;;4401916;32;20568;-69
2021/01/19 04:59:58;;;;;;;18.87;9.93;;;;;;;;;;4399259;32;20180;-67
2021/01/19 05:02:42;;;;;;;20.07;11.20;;;;;;;;;;4404074;32;20161;-70
2021/01/19 05:05:11;;;;;;;18.43;10.43;;;;;;;;;;4405500;32;20529;-70
2021/01/19 05:07:36;;;;;;;17.77;11.23;;;;;;;;;;4406486;32;20138;-71
2021/01/19 05:10:11;;;;;;;18.37;11.53;;;;;;;;;;4405941;32;20134;-69
2021/01/19 05:12:44;;;;;;;18.73;10.93;;;;;;;;;;4405771;32;20248;-72
2021/01/19 05:15:11;;;;;;;20.93;10.63;;;;;;;;;;4406642;32;20187;-69
2021/01/19 05:17:36;;;;;;;21.80;12.43;;;;;;;;;;4391720;32;20166;-68
2021/01/19 05:20:02;;;;;;;18.63;12.30;;;;;;;;;;4405691;32;20218;-69
2021/01/19 05:22:28;;;;;;;18.03;10.30;;;;;;;;;;4405901;32;20283;-70
2021/01/19 05:24:53;;;;;;;22.83;12.00;;;;;;;;;;4405452;32;20593;-72
2021/01/19 05:27:18;;;;;;;18.90;11.63;;;;;;;;;;4401753;32;20655;-70
2021/01/19 05:29:44;;;;;;;19.67;10.97;;;;;;;;;;4398772;32;20206;-70
2021/01/19 05:32:09;;;;;;;18.90;11.67;;;;;;;;;;4392470;32;20449;-70
2021/01/19 05:34:37;;;;;;;20.07;12.10;;;;;;;;;;4390406;32;20135;-68
2021/01/19 05:37:03;;;;;;;18.60;11.10;;;;;;;;;;4389961;32;20217;-66
2021/01/19 05:39:28;;;;;;;18.87;11.53;;;;;;;;;;4393381;32;20161;-70
2021/01/19 05:41:55;;;;;;;22.23;11.17;;;;;;;;;;4390548;32;20451;-68
2021/01/19 05:44:21;;;;;;;21.37;11.13;;;;;;;;;;4390739;32;20515;-69
2021/01/19 05:46:50;;;;;;;17.90;10.83;;;;;;;;;;4383274;32;20174;-69
2021/01/19 05:49:16;;;;;;;15.57;9.27;;;;;;;;;;4405456;32;20145;-70
2021/01/19 05:51:43;;;;;;;19.87;10.43;;;;;;;;;;4405384;32;20134;-71
2021/01/19 05:54:10;;;;;;;16.87;9.77;;;;;;;;;;4402036;32;20135;-69
2021/01/19 05:56:37;;;;;;;16.00;10.87;;;;;;;;;;4405830;32;20154;-69
2021/01/19 05:59:02;;;;;;;17.03;10.20;;;;;;;;;;4400036;32;20184;-70
2021/01/19 06:01:29;;;;;;;13.63;8.80;;;;;;;;;;4405209;32;20473;-69
2021/01/19 06:03:58;;;;;;;18.00;9.80;;;;;;;;;;4405790;32;20551;-71
2021/01/19 06:06:25;;;;;;;15.27;8.60;;;;;;;;;;4391323;32;20483;-68
2021/01/19 06:08:56;;;;;;;18.13;7.70;;;;;;;;;;4405572;32;20142;-67
2021/01/19 06:11:21;;;;;;;14.90;8.03;;;;;;;;;;4406208;32;20150;-72
2021/01/19 06:13:49;;;;;;;12.50;7.50;;;;;;;;;;4405231;32;20231;-68
2021/01/19 06:16:14;;;;;;;12.07;6.40;;;;;;;;;;4409771;32;20145;-68
2021/01/19 06:18:39;;;;;;;8.63;5.93;;;;;;;;;;4405431;32;20168;-67
2021/01/19 06:21:06;;;;;;;12.00;6.03;;;;;;;;;;4411621;32;20226;-67
2021/01/19 06:23:31;;;;;;;10.63;6.93;;;;;;;;;;4411168;32;20180;-71
2021/01/19 06:26:06;;;;;;;12.07;6.50;;;;;;;;;;4409957;32;20219;-70
2021/01/19 06:28:40;;;;;;;7.97;5.33;;;;;;;;;;4400707;32;20574;-71
2021/01/19 06:31:17;;;;;;;9.00;5.57;;;;;;;;;;4409584;32;20168;-70
2021/01/19 06:33:46;;;;;;;9.67;6.03;;;;;;;;;;4407334;32;20134;-70
2021/01/19 06:36:12;;;;;;;10.60;5.43;;;;;;;;;;4396153;32;20225;-71
2021/01/19 06:38:42;;;;;;;7.03;4.60;;;;;;;;;;4409928;32;20149;-69
2021/01/19 06:41:09;;;;;;;10.63;5.83;;;;;;;;;;4396336;32;20219;-67
2021/01/19 06:43:37;;;;;;;10.80;5.27;;;;;;;;;;4399057;32;20139;-70
2021/01/19 06:46:07;;;;;;;10.60;5.53;;;;;;;;;;4391997;32;20146;-70
2021/01/19 06:48:33;;;;;;;10.23;5.93;;;;;;;;;;4394740;32;20134;-68
2021/01/19 06:50:59;;;;;;;8.07;5.47;;;;;;;;;;4395611;32;20220;-66
2021/01/19 06:53:33;;;;;;;9.27;5.23;;;;;;;;;;4410648;32;20222;-66
2021/01/19 06:55:58;;;;;;;9.70;4.73;;;;;;;;;;4410194;32;20134;-67
2021/01/19 06:58:46;;;;;;;13.10;6.27;;;;;;;;;;4401559;32;20167;-70
2021/01/19 07:01:12;;;;;;;9.40;5.03;;;;;;;;;;4395407;32;20230;-70
2021/01/19 07:03:38;;;;;;;10.07;5.50;;;;;;;;;;4394703;32;20547;-66
2021/01/19 07:06:06;;;;;;;12.03;6.07;;;;;;;;;;4394649;32;20135;-70
2021/01/19 07:08:50;;;;;;;9.03;5.07;;;;;;;;;;4404373;32;20195;-71
2021/01/19 07:11:32;;;;;;;9.47;4.57;;;;;;;;;;4383085;32;20167;-70
2021/01/19 07:14:09;;;;;;;10.43;5.70;;;;;;;;;;4395159;32;20587;-69
2021/01/19 07:16:36;;;;;;;10.37;4.47;;;;;;;;;;4395534;32;20161;-70
2021/01/19 07:19:18;;;;;;;10.30;4.53;;;;;;;;;;4395384;32;20592;-67
2021/01/19 07:21:57;;;;;;;8.53;5.47;;;;;;;;;;4393989;32;20549;-66
2021/01/19 07:24:25;;;;;;;7.50;5.30;;;;;;;;;;4395167;32;20156;-70
2021/01/19 07:26:52;;;;;;;7.80;4.00;;;;;;;;;;4398681;32;20255;-67
2021/01/19 07:29:19;;;;;;;10.93;4.80;;;;;;;;;;4406970;32;20215;-69
2021/01/19 07:31:44;;;;;;;11.77;4.73;;;;;;;;;;4406631;32;20161;-70
2021/01/19 07:34:10;;;;;;;14.00;5.63;;;;;;;;;;4399349;32;20169;-70
2021/01/19 07:36:35;;;;;;;10.20;5.40;;;;;;;;;;4391927;32;20181;-69
2021/01/19 07:39:15;;;;;;;8.40;4.97;;;;;;;;;;4400543;32;20154;-70
2021/01/19 07:41:40;;;;;;;6.27;4.87;;;;;;;;;;4405779;32;20555;-70
2021/01/19 07:44:05;;;;;;;8.10;5.57;;;;;;;;;;4392221;32;20173;-70
2021/01/19 07:46:41;;;;;;;8.15;5.22;;;;;;;;;;4392215;32;20196;-70
2021/01/19 07:49:07;;;;;;;8.93;5.30;;;;;;;;;;4378427;32;20204;-71
2021/01/19 07:51:38;;;;;;;7.13;4.63;;;;;;;;;;4406773;32;20181;-69
2021/01/19 07:54:03;;;;;;;9.80;5.20;;;;;;;;;;4392501;32;20154;-69
2021/01/19 07:56:29;;;;;;;9.17;5.00;;;;;;;;;;4395720;32;20150;-70
2021/01/19 07:58:55;;;;;;;6.37;4.40;;;;;;;;;;4400863;32;20206;-70
2021/01/19 08:01:24;;;;;;;5.97;4.07;;;;;;;;;;4397410;32;20188;-70
2021/01/19 08:03:49;;;;;;;6.17;3.77;;;;;;;;;;4399629;32;20201;-70
2021/01/19 08:06:15;;;;;;;5.13;4.10;;;;;;;;;;4391628;32;20142;-67
2021/01/19 08:08:40;;;;;;;8.20;4.10;;;;;;;;;;4391667;32;20492;-70
2021/01/19 08:11:05;;;;;;;5.20;4.13;;;;;;;;;;4377793;32;20174;-70
2021/01/19 08:13:30;;;;;;;8.73;3.80;;;;;;;;;;4391061;32;20496;-73
2021/01/19 08:16:18;;;;;;;6.23;3.80;;;;;;;;;;4398343;32;20161;-71
2021/01/19 08:18:49;;;;;;;5.07;4.17;;;;;;;;;;4396762;32;20584;-70
2021/01/19 08:21:14;;;;;;;6.17;4.23;;;;;;;;;;4406464;32;20452;-67
2021/01/19 08:23:39;;;;;;;8.80;4.07;;;;;;;;;;4399603;32;20234;-70
2021/01/19 08:26:06;;;;;;;6.27;4.33;;;;;;;;;;4393198;32;20602;-71
2021/01/19 08:28:31;;;;;;;6.43;4.30;;;;;;;;;;4405142;32;20188;-70
2021/01/19 08:30:57;;;;;;;5.93;3.33;;;;;;;;;;4399406;32;20529;-71
2021/01/19 08:33:23;;;;;;;7.68;4.30;;;;;;;;;;4399311;32;20138;-69
2021/01/19 08:35:49;;;;;;;6.87;3.97;;;;;;;;;;4401304;32;20711;-68
2021/01/19 08:38:19;;;;;;;6.07;4.73;;;;;;;;;;4405107;32;20560;-68
2021/01/19 08:40:45;;;;;;;8.45;5.03;;;;;;;;;;4404234;32;20150;-69
2021/01/19 08:43:10;;;;;;;8.53;4.60;;;;;;;;;;4399663;32;20221;-71
2021/01/19 08:45:38;;;;;;;6.40;4.47;;;;;;;;;;4396783;32;20239;-71
2021/01/19 08:48:05;;;;;;;6.27;4.27;;;;;;;;;;4397115;32;20523;-68
2021/01/19 08:50:34;;;;;;;7.67;4.73;;;;;;;;;;4397622;32;20193;-69
2021/01/19 08:53:06;;;;;;;6.53;4.20;;;;;;;;;;4396874;32;20169;-68
2021/01/19 08:55:31;;;;;;;5.47;3.17;;;;;;;;;;4395997;32;20147;-70
2021/01/19 08:57:57;;;;;;;5.13;3.20;;;;;;;;;;4396080;32;20220;-71
2021/01/19 09:00:24;;;;;;;5.90;3.50;;;;;;;;;;4396874;32;20157;-70
2021/01/19 09:02:49;;;;;;;5.80;3.80;;;;;;;;;;4394991;32;20588;-71
2021/01/19 09:05:28;;;;;;;6.67;3.73;;;;;;;;;;4397022;32;20261;-70
2021/01/19 09:07:54;;;;;;;6.20;3.20;;;;;;;;;;4395911;32;20185;-70
2021/01/19 09:10:23;;;;;;;5.83;3.57;;;;;;;;;;4396894;32;20153;-69
2021/01/19 09:12:49;;;;;;;5.30;3.30;;;;;;;;;;4398156;32;20149;-69
2021/01/19 09:15:15;;;;;;;5.13;3.47;;;;;;;;;;4397539;32;20177;-69
2021/01/19 09:17:40;;;;;;;6.43;3.60;;;;;;;;;;4388344;32;20201;-69
2021/01/19 09:20:08;;;;;;;6.60;3.53;;;;;;;;;;4394334;32;20150;-70
2021/01/19 09:22:34;;;;;;;4.75;3.45;;;;;;;;;;4398290;32;20168;-68
2021/01/19 09:24:59;;;;;;;5.53;3.47;;;;;;;;;;4397255;32;20213;-69
2021/01/19 09:27:27;;;;;;;5.47;3.10;;;;;;;;;;4395949;32;20861;-69
2021/01/19 09:30:03;;;;;;;9.27;3.58;;;;;;;;;;4395811;32;20657;-68
2021/01/19 09:32:28;;;;;;;10.07;3.60;;;;;;;;;;4394496;32;20145;-68
2021/01/19 09:34:54;;;;;;;5.72;2.78;;;;;;;;;;4401809;32;20264;-70
2021/01/19 09:37:20;;;;;;;9.07;3.62;;;;;;;;;;4396824;32;20499;-71
2021/01/19 09:39:46;;;;;;;10.32;3.62;;;;;;;;;;4397090;32;20161;-71
2021/01/19 09:42:11;;;;;;;11.93;3.58;;;;;;;;;;4398656;32;20154;-69
2021/01/19 09:44:37;;;;;;;11.82;4.37;;;;;;;;;;4398103;32;20225;-70
2021/01/19 09:47:03;;;;;;;13.73;3.92;;;;;;;;;;4393097;32;20228;-72
2021/01/19 09:49:29;;;;;;;11.57;3.25;;;;;;;;;;4394610;32;20222;-69
2021/01/19 09:51:55;;;;;;;12.50;2.80;;;;;;;;;;4396619;32;20161;-68
2021/01/19 09:54:21;;;;;;;12.93;3.62;;;;;;;;;;4388799;32;20458;-70
2021/01/19 09:56:54;;;;;;;11.05;4.05;;;;;;;;;;4394143;32;20494;-70
2021/01/19 09:59:23;;;;;;;13.82;3.92;;;;;;;;;;4396886;32;20185;-69
2021/01/19 10:01:54;;;;;;;17.20;4.25;;;;;;;;;;4386788;32;20224;-70
2021/01/19 10:04:22;;;;;;;18.75;4.62;;;;;;;;;;4384600;32;20583;-70
2021/01/19 10:06:47;;;;;;;14.77;4.12;;;;;;;;;;4396820;32;20634;-68
2021/01/19 10:09:22;;;;;;;15.05;3.65;;;;;;;;;;4400605;32;20166;-70
2021/01/19 10:12:01;;;;;;;13.30;4.37;;;;;;;;;;4403882;32;20611;-69
2021/01/19 10:14:30;;;;;;;12.02;3.67;;;;;;;;;;4402707;32;20213;-66
2021/01/19 10:16:55;;;;;;;12.20;3.37;;;;;;;;;;4393063;32;20192;-69
2021/01/19 10:19:21;;;;;;;12.18;3.47;;;;;;;;;;4375562;32;20177;-66
2021/01/19 10:21:48;;;;;;;17.50;3.67;;;;;;;;;;4391085;32;20161;-69
2021/01/19 10:24:14;;;;;;;17.23;3.67;;;;;;;;;;4389424;32;20134;-69
2021/01/19 10:26:43;;;;;;;14.07;3.53;;;;;;;;;;4389071;32;20598;-70
2021/01/19 10:29:11;;;;;;;17.40;3.90;;;;;;;;;;4401300;32;20177;-69
2021/01/19 10:32:04;;;;;;;11.75;3.70;;;;;;;;;;4403827;32;20169;-71
2021/01/19 10:34:30;;;;;;;21.00;4.25;;;;;;;;;;4389222;32;20185;-70
2021/01/19 10:36:56;;;;;;;15.27;3.65;;;;;;;;;;4393670;32;20147;-70
2021/01/19 10:39:22;;;;;;;9.55;2.33;;;;;;;;;;4393047;32;20184;-70
2021/01/19 10:41:50;;;;;;;12.85;3.35;;;;;;;;;;4389538;32;20196;-69
2021/01/19 10:44:16;;;;;;;18.40;3.55;;;;;;;;;;4389591;32;20189;-67
2021/01/19 10:46:47;;;;;;;11.55;3.10;;;;;;;;;;4384883;32;20248;-70
2021/01/19 10:49:14;;;;;;;12.35;3.03;;;;;;;;;;4404321;32;20160;-71
2021/01/19 10:51:41;;;;;;;9.57;3.03;;;;;;;;;;4375393;32;20174;-69
2021/01/19 10:54:07;;;;;;;13.90;3.42;;;;;;;;;;4388522;32;20568;-70
2021/01/19 10:56:33;;;;;;;14.75;3.60;;;;;;;;;;4375004;32;20220;-68
2021/01/19 10:58:58;;;;;;;12.15;3.53;;;;;;;;;;4389324;32;20217;-71
2021/01/19 11:01:27;;;;;;;15.80;3.60;;;;;;;;;;4390398;32;20194;-70
2021/01/19 11:03:54;;;;;;;15.23;3.47;;;;;;;;;;4378938;32;20175;-69
2021/01/19 11:06:20;;;;;;;13.68;3.75;;;;;;;;;;4391931;32;20180;-67
2021/01/19 11:08:46;;;;;;;18.05;3.90;;;;;;;;;;4396982;32;20146;-72
2021/01/19 11:11:11;;;;;;;14.82;3.90;;;;;;;;;;4399063;32;20173;-66
2021/01/19 11:13:36;;;;;;;20.10;4.05;;;;;;;;;;4406315;32;20594;-69
2021/01/19 11:16:01;;;;;;;16.65;3.30;;;;;;;;;;4399336;32;20147;-70
2021/01/19 11:18:27;;;;;;;13.25;2.90;;;;;;;;;;4391417;32;20236;-69
2021/01/19 11:20:52;;;;;;;16.23;3.25;;;;;;;;;;4405329;32;20138;-68
2021/01/19 11:23:17;;;;;;;14.60;3.58;;;;;;;;;;4387718;32;20285;-68
2021/01/19 11:25:42;;;;;;;12.73;3.42;;;;;;;;;;4396866;32;20150;-72
2021/01/19 11:28:07;;;;;;;18.00;3.47;;;;;;;;;;4404768;32;20176;-71
2021/01/19 11:30:33;;;;;;;14.73;3.65;;;;;;;;;;4405509;32;20158;-71
2021/01/19 11:32:59;;;;;;;15.57;3.37;;;;;;;;;;4396284;32;20154;-64
2021/01/19 11:35:24;;;;;;;15.65;3.37;;;;;;;;;;4396761;32;20133;-71
2021/01/19 11:37:49;;;;;;;18.60;3.75;;;;;;;;;;4380799;32;20162;-71
2021/01/19 11:40:15;;;;;;;16.25;3.45;;;;;;;;;;4402655;32;20254;-69
2021/01/19 11:42:40;;;;;;;10.38;2.65;;;;;;;;;;4390678;32;20139;-70
2021/01/19 11:45:05;;;;;;;15.68;3.65;;;;;;;;;;4403030;32;20146;-67
2021/01/19 11:47:31;;;;;;;17.27;3.90;;;;;;;;;;4382056;32;20555;-71
2021/01/19 11:49:56;;;;;;;18.58;3.40;;;;;;;;;;4403150;32;20180;-71
2021/01/19 11:52:21;;;;;;;15.52;3.42;;;;;;;;;;4402145;32;20142;-70
2021/01/19 11:54:47;;;;;;;15.80;3.47;;;;;;;;;;4377472;32;20201;-72
2021/01/19 11:57:12;;;;;;;13.48;3.03;;;;;;;;;;4377835;32;20178;-70
2021/01/19 11:59:38;;;;;;;12.37;2.72;;;;;;;;;;4402409;32;20158;-70
2021/01/19 12:02:03;;;;;;;13.75;3.30;;;;;;;;;;4406096;32;20173;-70
2021/01/19 12:04:28;;;;;;;13.05;3.10;;;;;;;;;;4402682;32;20158;-71
2021/01/19 12:06:53;;;;;;;18.55;3.42;;;;;;;;;;4406175;32;20537;-70
2021/01/19 12:09:23;;;;;;;10.57;2.70;;;;;;;;;;4407010;32;20169;-70
2021/01/19 12:11:54;;;;;;;9.95;2.75;;;;;;;;;;4389275;32;20217;-72
2021/01/19 12:14:19;;;;;;;14.38;2.95;;;;;;;;;;4391198;32;20176;-70
2021/01/19 12:16:44;;;;;;;17.27;3.65;;;;;;;;;;4398362;32;20150;-70
2021/01/19 12:19:10;;;;;;;20.80;3.55;;;;;;;;;;4391453;32;20155;-71
2021/01/19 12:21:48;;;;;;;13.40;3.30;;;;;;;;;;4390915;32;20138;-72
2021/01/19 12:24:13;;;;;;;17.50;3.87;;;;;;;;;;4400660;32;20141;-70
2021/01/19 12:26:38;;;;;;;19.02;4.50;;;;;;;;;;4392688;32;20200;-72
2021/01/19 12:29:06;;;;;;;17.50;3.67;;;;;;;;;;4404915;32;20138;-71
2021/01/19 12:31:31;;;;;;;18.12;3.28;;;;;;;;;;4382432;32;20170;-71
2021/01/19 12:33:57;;;;;;;17.42;3.12;;;;;;;;;;4398476;32;20188;-68
2021/01/19 12:36:22;;;;;;;21.17;3.05;;;;;;;;;;4405188;32;20142;-68
2021/01/19 12:38:47;;;;;;;14.35;2.92;;;;;;;;;;4402416;32;21036;-69
2021/01/19 12:41:16;;;;;;;19.50;3.45;;;;;;;;;;4405060;32;20572;-69
2021/01/19 12:43:42;;;;;;;16.62;3.25;;;;;;;;;;4391670;32;20245;-72
2021/01/19 12:46:09;;;;;;;16.77;3.85;;;;;;;;;;4384064;32;20650;-72
2021/01/19 12:48:34;;;;;;;19.90;3.55;;;;;;;;;;4395943;32;20154;-72
2021/01/19 12:50:59;;;;;;;15.43;3.35;;;;;;;;;;4403112;32;20571;-71
2021/01/19 12:53:25;;;;;;;18.90;3.15;;;;;;;;;;4405186;32;20165;-71
2021/01/19 12:55:50;;;;;;;16.87;3.30;;;;;;;;;;4391221;32;20165;-72
2021/01/19 12:58:23;;;;;;;16.55;3.53;;;;;;;;;;4405157;32;20172;-73
2021/01/19 13:00:49;;;;;;;24.17;3.72;;;;;;;;;;4405639;32;20146;-72
2021/01/19 13:03:14;;;;;;;21.48;3.42;;;;;;;;;;4388685;32;20201;-73
2021/01/19 13:05:39;;;;;;;12.65;2.35;;;;;;;;;;4397168;32;20595;-70
2021/01/19 13:08:05;;;;;;;14.27;2.72;;;;;;;;;;4401898;32;20204;-72
2021/01/19 13:10:30;;;;;;;12.70;2.70;;;;;;;;;;4389361;32;20151;-69
2021/01/19 13:12:59;;;;;;;20.90;3.28;;;;;;;;;;4391118;32;20146;-72
2021/01/19 13:15:24;;;;;;;15.63;3.10;;;;;;;;;;4393946;32;20506;-71
2021/01/19 13:17:49;;;;;;;10.75;2.30;;;;;;;;;;4393257;32;20204;-73
2021/01/19 13:20:15;;;;;;;13.02;2.70;;;;;;;;;;4399603;32;20165;-73
2021/01/19 13:22:40;;;;;;;17.55;3.25;;;;;;;;;;4390116;32;20466;-71
2021/01/19 13:25:05;;;;;;;13.25;2.75;;;;;;;;;;4397705;32;20141;-73
2021/01/19 13:27:34;;;;;;;16.45;2.80;;;;;;;;;;4404560;32;20154;-72
2021/01/19 13:29:59;;;;;;;15.52;2.15;;;;;;;;;;4389981;32;20162;-72
2021/01/19 13:32:27;;;;;;;19.85;2.87;;;;;;;;;;4389484;32;20533;-73
2021/01/19 13:35:01;;;;;;;12.52;2.62;;;;;;;;;;4404645;32;20141;-73
2021/01/19 13:37:54;;;;;;;13.73;2.30;;;;;;;;;;4391237;32;20598;-72
2021/01/19 13:40:20;;;;;;;13.10;2.37;;;;;;;;;;4405052;32;20154;-73
2021/01/19 13:42:52;;;;;;;13.98;2.87;;;;;;;;;;4404925;32;20164;-72
2021/01/19 13:45:18;;;;;;;11.18;2.60;;;;;;;;;;4405045;32;20185;-72
2021/01/19 13:47:44;;;;;;;13.90;2.20;;;;;;;;;;4405003;32;20499;-73
2021/01/19 13:50:10;;;;;;;11.10;2.42;;;;;;;;;;4404316;32;20223;-72
2021/01/19 13:52:35;;;;;;;12.10;2.10;;;;;;;;;;4419363;32;20145;-73
2021/01/19 13:55:00;;;;;;;15.93;2.85;;;;;;;;;;4413644;32;20173;-73
2021/01/19 13:57:26;;;;;;;11.27;2.30;;;;;;;;;;4382523;32;20205;-74
2021/01/19 13:59:51;;;;;;;14.65;2.33;;;;;;;;;;4398821;32;20203;-73
2021/01/19 14:02:16;;;;;;;9.63;2.05;;;;;;;;;;4399108;32;20205;-71
2021/01/19 14:04:42;;;;;;;9.23;1.60;;;;;;;;;;4400079;32;20225;-73
2021/01/19 14:07:14;;;;;;;12.05;1.90;;;;;;;;;;4404603;32;20594;-72
2021/01/19 14:09:49;;;;;;;9.00;1.77;;;;;;;;;;4396001;32;20162;-73
2021/01/19 14:12:14;;;;;;;9.43;1.90;;;;;;;;;;4402185;32;20141;-73
2021/01/19 14:14:40;;;;;;;7.43;1.73;;;;;;;;;;4394966;32;20142;-72
2021/01/19 14:17:09;;;;;;;6.95;1.77;;;;;;;;;;4404692;32;20161;-73
2021/01/19 14:19:35;;;;;;;6.07;1.55;;;;;;;;;;4412591;32;20165;-71
2021/01/19 14:22:06;;;;;;;10.38;2.10;;;;;;;;;;4392359;32;20220;-73
2021/01/19 14:24:31;;;;;;;9.02;1.55;;;;;;;;;;4403621;32;20157;-72
2021/01/19 14:26:56;;;;;;;15.45;1.95;;;;;;;;;;4403988;32;20549;-71
2021/01/19 14:29:22;;;;;;;6.37;1.58;;;;;;;;;;4402114;32;20147;-70
2021/01/19 14:31:47;;;;;;;9.68;1.85;;;;;;;;;;4402225;32;20169;-72
2021/01/19 14:34:14;;;;;;;9.20;1.95;;;;;;;;;;4404773;32;20134;-71
2021/01/19 14:36:39;;;;;;;5.97;1.40;;;;;;;;;;4405377;32;20168;-73
2021/01/19 14:39:04;;;;;;;4.57;1.17;;;;;;;;;;4407794;32;20145;-71
2021/01/19 14:41:32;;;;;;;13.30;1.75;;;;;;;;;;4392650;32;20165;-72
2021/01/19 14:43:59;;;;;;;6.00;1.35;;;;;;;;;;4392329;32;20221;-73
2021/01/19 14:46:24;;;;;;;9.52;1.35;;;;;;;;;;4414337;32;20162;-70